createdAt,value
2019-01-25T00:01:36.746Z,7.25
2019-01-25T00:04:06.164Z,16.25
2019-01-25T00:06:35.498Z,20.05
2019-01-25T00:09:07.934Z,19.10
2019-01-25T00:11:37.327Z,12.47
2019-01-25T00:14:25.711Z,24.77
2019-01-25T00:16:55.045Z,16.77
2019-01-25T00:19:24.363Z,17.45
2019-01-25T00:21:53.778Z,15.63
2019-01-25T00:24:23.122Z,12.58
2019-01-25T00:26:52.451Z,17.60
2019-01-25T00:29:21.799Z,15.60
2019-01-25T00:32:10.242Z,19.17
2019-01-25T00:34:39.646Z,35.90
2019-01-25T00:37:08.974Z,19.90
2019-01-25T00:39:38.306Z,23.65
2019-01-25T00:42:07.642Z,23.30
2019-01-25T00:44:37.891Z,21.87
2019-01-25T00:47:07.222Z,19.45
2019-01-25T00:49:36.571Z,14.65
2019-01-25T00:52:24.334Z,24.05
2019-01-25T00:55:12.711Z,17.12
2019-01-25T00:57:42.034Z,16.15
2019-01-25T01:00:15.166Z,20.35
2019-01-25T01:02:44.504Z,10.00
2019-01-25T01:05:14.602Z,23.27
2019-01-25T01:07:44.229Z,17.35
2019-01-25T01:10:14.320Z,23.80
2019-01-25T01:12:43.870Z,26.25
2019-01-25T01:15:13.570Z,16.15
2019-01-25T01:18:01.946Z,15.38
2019-01-25T01:20:31.288Z,27.50
2019-01-25T01:23:00.610Z,24.15
2019-01-25T01:25:30.039Z,14.35
2019-01-25T01:27:59.362Z,13.35
2019-01-25T01:30:28.698Z,23.60
2019-01-25T01:32:58.032Z,27.10
2019-01-25T01:35:27.446Z,36.90
2019-01-25T01:37:56.770Z,22.45
2019-01-25T01:40:26.834Z,30.62
2019-01-25T01:42:56.179Z,21.65
2019-01-25T01:45:44.554Z,28.60
2019-01-25T01:48:13.878Z,23.67
2019-01-25T01:50:43.223Z,17.48
2019-01-25T01:53:12.562Z,18.85
2019-01-25T01:55:41.878Z,18.50
2019-01-25T01:58:11.218Z,14.25
2019-01-25T02:00:59.747Z,27.05
2019-01-25T02:03:29.115Z,22.07
2019-01-25T02:05:58.434Z,10.05
2019-01-25T02:08:27.754Z,10.32
2019-01-25T02:10:57.082Z,8.33
2019-01-25T02:13:45.462Z,9.15
2019-01-25T02:16:14.793Z,18.20
2019-01-25T02:18:44.110Z,12.88
2019-01-25T02:21:14.202Z,25.45
2019-01-25T02:23:43.538Z,15.80
2019-01-25T02:26:12.861Z,17.77
2019-01-25T02:28:42.192Z,16.55
2019-01-25T02:31:30.574Z,29.48
2019-01-25T02:34:00.719Z,16.82
2019-01-25T02:36:30.198Z,21.45
2019-01-25T02:38:59.533Z,18.65
2019-01-25T02:41:48.486Z,30.40
2019-01-25T02:44:17.806Z,16.15
2019-01-25T02:46:47.143Z,19.25
2019-01-25T02:49:16.470Z,23.60
2019-01-25T02:51:45.806Z,28.12
2019-01-25T02:54:15.145Z,27.80
2019-01-25T02:56:44.551Z,33.80
2019-01-25T02:59:13.874Z,15.00
2019-01-25T03:01:43.214Z,21.93
2019-01-25T03:04:12.551Z,15.35
2019-01-25T03:06:41.891Z,21.57
2019-01-25T03:09:11.635Z,21.30
2019-01-25T03:11:40.968Z,35.73
2019-01-25T03:14:10.375Z,26.35
2019-01-25T03:16:39.713Z,45.70
2019-01-25T03:19:28.123Z,36.40
2019-01-25T03:21:57.532Z,29.67
2019-01-25T03:24:26.948Z,22.55
2019-01-25T03:26:56.280Z,23.38
2019-01-25T03:29:25.606Z,15.28
2019-01-25T03:31:54.962Z,35.70
2019-01-25T03:34:24.354Z,63.23
2019-01-25T03:36:53.686Z,28.65
2019-01-25T03:39:23.014Z,26.10
2019-01-25T03:42:11.399Z,38.40
2019-01-25T03:47:45.751Z,22.32
2019-01-25T03:50:18.572Z,25.23
2019-01-25T03:52:47.903Z,27.07
2019-01-25T03:55:17.443Z,24.75
2019-01-25T03:57:46.878Z,16.07
2019-01-25T04:00:18.356Z,20.43
2019-01-25T04:02:47.686Z,25.12
2019-01-25T04:05:17.423Z,34.98
2019-01-25T04:07:47.174Z,50.60
2019-01-25T04:10:18.087Z,31.25
2019-01-25T04:12:47.434Z,31.90
2019-01-25T04:15:25.014Z,39.20
2019-01-25T04:17:54.623Z,15.48
2019-01-25T04:20:24.408Z,17.27
2019-01-25T04:22:53.940Z,26.05
2019-01-25T04:25:23.642Z,36.30
2019-01-25T04:28:11.476Z,22.13
2019-01-25T04:33:59.868Z,20.20
2019-01-25T04:36:29.203Z,34.58
2019-01-25T04:38:58.534Z,18.02
2019-01-25T04:41:27.860Z,19.50
2019-01-25T04:43:57.195Z,24.18
2019-01-25T04:46:26.534Z,27.75
2019-01-25T04:48:55.869Z,22.82
2019-01-25T04:51:25.274Z,23.35
2019-01-25T04:53:54.596Z,29.07
2019-01-25T04:56:23.937Z,21.17
2019-01-25T04:58:53.268Z,25.10
2019-01-25T05:01:22.599Z,21.42
2019-01-25T05:04:10.979Z,20.90
2019-01-25T05:06:59.364Z,31.70
2019-01-25T05:09:31.806Z,28.77
2019-01-25T05:12:01.203Z,35.08
2019-01-25T05:14:34.746Z,37.42
2019-01-25T05:17:04.550Z,35.30
2019-01-25T05:19:39.814Z,39.27
2019-01-25T05:22:09.147Z,34.60
2019-01-25T05:24:38.488Z,47.50
2019-01-25T05:27:07.819Z,36.93
2019-01-25T05:29:56.247Z,42.08
2019-01-25T05:32:25.654Z,28.87
2019-01-25T05:34:54.988Z,24.12
2019-01-25T05:37:24.356Z,53.98
2019-01-25T05:39:53.687Z,41.60
2019-01-25T05:42:23.027Z,39.85
2019-01-25T05:44:52.368Z,41.37
2019-01-25T05:47:21.699Z,38.70
2019-01-25T05:49:51.034Z,82.10
2019-01-25T05:52:21.036Z,35.00
2019-01-25T05:55:12.026Z,57.45
2019-01-25T05:57:41.354Z,49.98
2019-01-25T06:00:12.470Z,50.78
2019-01-25T06:02:41.803Z,43.73
2019-01-25T06:05:11.282Z,47.08
2019-01-25T06:07:40.610Z,58.10
2019-01-25T06:10:32.830Z,31.80
2019-01-25T06:13:02.163Z,45.12
2019-01-25T06:15:31.486Z,39.78
2019-01-25T06:18:02.825Z,50.88
2019-01-25T06:20:32.202Z,40.28
2019-01-25T06:23:01.618Z,45.78
2019-01-25T06:25:30.951Z,36.48
2019-01-25T06:28:00.289Z,35.40
2019-01-25T06:30:29.626Z,48.73
2019-01-25T06:32:58.961Z,56.00
2019-01-25T06:35:28.287Z,50.28
2019-01-25T06:37:57.614Z,47.78
2019-01-25T06:40:26.964Z,43.87
2019-01-25T06:42:56.295Z,40.80
2019-01-25T06:45:25.630Z,47.20
2019-01-25T06:47:54.979Z,46.08
2019-01-25T06:50:24.382Z,45.67
2019-01-25T06:55:59.323Z,47.85
2019-01-25T06:58:50.359Z,36.15
2019-01-25T07:01:37.310Z,35.15
2019-01-25T07:04:06.855Z,40.08
2019-01-25T07:06:36.202Z,39.73
2019-01-25T07:09:09.578Z,88.97
2019-01-25T07:11:57.981Z,47.30
2019-01-25T07:14:27.342Z,54.95
2019-01-25T07:16:56.682Z,51.33
2019-01-25T07:19:26.034Z,58.83
2019-01-25T07:21:55.371Z,32.53
2019-01-25T07:24:24.706Z,36.83
2019-01-25T07:26:54.051Z,67.22
2019-01-25T07:29:23.480Z,42.98
2019-01-25T07:31:52.892Z,40.23
2019-01-25T07:34:22.249Z,31.00
2019-01-25T07:36:52.120Z,42.25
2019-01-25T07:39:28.795Z,23.40
2019-01-25T07:41:59.591Z,21.30
2019-01-25T07:44:30.014Z,14.15
2019-01-25T07:46:59.497Z,32.93
2019-01-25T07:49:28.907Z,23.80
2019-01-25T07:51:58.280Z,19.90
2019-01-25T07:54:27.703Z,22.10
2019-01-25T07:56:57.127Z,38.42
2019-01-25T07:59:26.463Z,28.98
2019-01-25T08:01:55.822Z,30.65
2019-01-25T08:04:25.230Z,22.70
2019-01-25T08:06:54.647Z,24.37
2019-01-25T08:09:24.052Z,27.55
2019-01-25T08:11:53.479Z,19.48
2019-01-25T08:14:22.812Z,35.58
2019-01-25T08:16:52.169Z,28.67
2019-01-25T08:19:21.645Z,25.12
2019-01-25T08:21:51.002Z,43.70
2019-01-25T08:24:20.429Z,38.08
2019-01-25T08:26:49.864Z,38.65
2019-01-25T08:29:19.284Z,50.12
2019-01-25T08:31:49.127Z,45.52
2019-01-25T08:34:18.575Z,38.67
2019-01-25T08:36:47.933Z,43.00
2019-01-25T08:39:17.337Z,41.15
2019-01-25T08:41:46.680Z,22.65
2019-01-25T08:44:16.099Z,39.20
2019-01-25T08:46:45.476Z,22.50
2019-01-25T08:49:14.882Z,26.42
2019-01-25T08:52:03.345Z,25.80
2019-01-25T08:54:32.780Z,28.35
2019-01-25T08:57:02.151Z,29.95
2019-01-25T08:59:31.517Z,32.40
2019-01-25T09:02:19.962Z,42.73
2019-01-25T09:04:49.372Z,19.73
2019-01-25T09:07:18.776Z,20.05
2019-01-25T09:09:48.202Z,59.08
2019-01-25T09:12:23.199Z,114.37
2019-01-25T09:14:48.731Z,68.28
2019-01-25T09:17:18.064Z,30.00
2019-01-25T09:19:47.423Z,28.35
2019-01-25T09:22:16.837Z,23.12
2019-01-25T09:24:46.247Z,41.30
2019-01-25T09:27:15.610Z,28.75
2019-01-25T09:29:44.948Z,22.20
2019-01-25T09:32:14.411Z,19.52
2019-01-25T09:38:40.933Z,30.15
2019-01-25T09:41:57.109Z,31.25
2019-01-25T09:45:10.119Z,20.82
2019-01-25T09:47:52.166Z,17.37
2019-01-25T09:54:33.284Z,21.65
2019-01-25T09:57:54.883Z,16.23
2019-01-25T10:04:34.331Z,14.47
2019-01-25T10:07:49.602Z,15.60
2019-01-25T10:10:29.500Z,15.65
2019-01-25T10:13:12.892Z,15.58
2019-01-25T10:16:01.889Z,20.00
2019-01-25T10:22:03.955Z,25.88
2019-01-25T10:25:10.311Z,17.95
2019-01-25T10:28:57.166Z,16.25
2019-01-25T10:32:00.196Z,11.57
2019-01-25T10:35:07.267Z,21.25
2019-01-25T10:37:43.272Z,18.98
2019-01-25T10:40:29.934Z,17.95
2019-01-25T10:43:06.708Z,24.25
2019-01-25T10:45:49.594Z,30.35
2019-01-25T10:48:24.626Z,22.77
2019-01-25T10:51:14.090Z,22.55
2019-01-25T10:54:09.525Z,32.53
2019-01-25T10:56:52.784Z,25.97
2019-01-25T10:59:50.006Z,26.10
2019-01-25T11:02:14.863Z,12.58
2019-01-25T11:04:50.535Z,26.10
2019-01-25T11:07:30.563Z,20.30
2019-01-25T11:10:02.437Z,22.07
2019-01-25T11:12:35.728Z,14.83
2019-01-25T11:15:08.046Z,19.30
2019-01-25T11:17:38.744Z,12.58
2019-01-25T11:20:14.440Z,18.42
2019-01-25T11:22:48.791Z,22.65
2019-01-25T11:25:38.985Z,17.02
2019-01-25T11:31:48.950Z,12.45
2019-01-25T11:43:08.873Z,12.40
2019-01-25T12:21:30.541Z,7.47
2019-01-25T12:29:29.951Z,13.83
2019-01-25T12:41:06.752Z,5.45
2019-01-25T12:54:06.269Z,10.00
2019-01-25T13:01:12.254Z,10.20
2019-01-25T13:04:06.462Z,7.85
2019-01-25T13:06:59.263Z,5.50
2019-01-25T13:09:41.037Z,7.35
2019-01-25T13:12:37.763Z,10.98
2019-01-25T13:15:14.070Z,10.88
2019-01-25T13:18:08.142Z,12.40
2019-01-25T13:28:36.510Z,10.03
2019-01-25T13:31:16.401Z,8.25
2019-01-25T13:33:55.695Z,11.53
2019-01-25T13:36:47.250Z,7.60
2019-01-25T13:39:24.108Z,8.35
2019-01-25T13:42:17.921Z,11.60
2019-01-25T13:45:01.770Z,8.88
2019-01-25T13:47:35.276Z,16.62
2019-01-25T13:50:06.627Z,10.75
2019-01-25T13:52:40.158Z,10.15
2019-01-25T13:55:23.696Z,11.45
2019-01-25T13:58:06.421Z,10.93
2019-01-25T14:00:50.411Z,16.95
2019-01-25T14:03:31.757Z,32.10
2019-01-25T14:06:30.742Z,20.77
2019-01-25T14:09:02.655Z,22.45
2019-01-25T14:11:38.082Z,11.93
2019-01-25T14:14:39.568Z,14.28
2019-01-25T14:17:29.356Z,18.75
2019-01-25T14:20:23.482Z,13.08
2019-01-25T14:23:30.835Z,7.15
2019-01-25T14:26:31.473Z,9.48
2019-01-25T14:29:32.477Z,8.33
2019-01-25T14:35:22.789Z,9.18
2019-01-25T14:38:05.968Z,13.68
2019-01-25T14:40:49.904Z,8.28
2019-01-25T14:43:24.204Z,14.28
2019-01-25T14:45:57.757Z,8.43
2019-01-25T14:48:28.412Z,11.35
2019-01-25T14:51:03.607Z,14.98
2019-01-25T14:53:34.304Z,8.98
2019-01-25T14:56:10.682Z,13.10
2019-01-25T14:58:54.325Z,13.15
2019-01-25T15:01:25.104Z,10.75
2019-01-25T15:03:57.444Z,10.55
2019-01-25T15:06:28.019Z,10.05
2019-01-25T15:09:04.630Z,10.68
2019-01-25T15:11:38.870Z,21.02
2019-01-25T15:14:09.645Z,13.40
2019-01-25T15:20:05.266Z,13.65
2019-01-25T15:22:48.207Z,12.50
2019-01-25T15:25:44.735Z,8.83
2019-01-25T15:28:33.739Z,11.97
2019-01-25T15:31:35.463Z,10.23
2019-01-25T15:37:22.934Z,11.03
2019-01-25T15:40:23.328Z,18.60
2019-01-25T15:43:37.968Z,27.85
2019-01-25T15:46:17.959Z,17.12
2019-01-25T15:48:53.676Z,21.48
2019-01-25T15:51:52.895Z,15.45
2019-01-25T15:54:33.490Z,14.68
2019-01-25T15:57:13.963Z,11.80
2019-01-25T15:59:51.706Z,13.95
2019-01-25T16:03:18.285Z,9.30
2019-01-25T16:05:51.572Z,14.38
2019-01-25T16:08:26.910Z,9.75
2019-01-25T16:11:03.662Z,14.43
2019-01-25T16:13:32.130Z,8.30
2019-01-25T16:16:02.921Z,13.18
2019-01-25T16:19:15.501Z,10.30
2019-01-25T16:21:46.134Z,11.33
2019-01-25T16:24:16.838Z,9.00
2019-01-25T16:26:47.394Z,10.13
2019-01-25T16:29:18.136Z,6.45
2019-01-25T16:31:48.766Z,10.48
2019-01-25T16:34:28.788Z,15.23
2019-01-25T16:37:26.727Z,24.77
2019-01-25T16:40:05.841Z,16.62
2019-01-25T16:47:44.399Z,10.65
2019-01-25T16:51:33.683Z,12.40
2019-01-25T16:58:28.250Z,14.98
2019-01-25T17:05:24.186Z,18.52
2019-01-25T17:11:38.617Z,16.90
2019-01-25T17:14:18.378Z,13.13
2019-01-25T17:16:52.079Z,13.03
2019-01-25T17:19:49.953Z,11.22
2019-01-25T17:23:09.512Z,12.15
2019-01-25T17:30:37.876Z,17.62
2019-01-25T17:33:29.750Z,22.42
2019-01-25T17:36:05.651Z,7.00
2019-01-25T17:39:18.179Z,18.70
2019-01-25T17:41:51.786Z,18.92
2019-01-25T17:44:47.873Z,13.45
2019-01-25T17:47:26.769Z,11.75
2019-01-25T17:50:15.202Z,18.90
2019-01-25T17:53:07.816Z,19.92
2019-01-25T17:55:51.376Z,12.75
2019-01-25T17:58:39.452Z,12.43
2019-01-25T18:01:16.233Z,19.25
2019-01-25T18:04:08.199Z,11.80
2019-01-25T18:06:47.691Z,15.58
2019-01-25T18:09:21.040Z,18.45
2019-01-25T18:12:04.356Z,18.00
2019-01-25T18:14:54.060Z,33.98
2019-01-25T18:17:56.571Z,16.57
2019-01-25T18:23:53.145Z,12.07
2019-01-25T18:32:46.886Z,16.25
2019-01-25T18:35:20.968Z,20.50
2019-01-25T18:37:55.664Z,20.02
2019-01-25T18:40:30.504Z,11.95
2019-01-25T18:43:06.805Z,12.33
2019-01-25T18:45:40.896Z,14.65
2019-01-25T18:48:15.334Z,15.25
2019-01-25T18:50:49.180Z,11.28
2019-01-25T18:53:25.714Z,18.80
2019-01-25T18:56:02.400Z,17.40
2019-01-25T18:58:35.964Z,28.00
2019-01-25T19:01:06.955Z,16.95
2019-01-25T19:03:48.114Z,13.18
2019-01-25T19:06:18.283Z,15.05
2019-01-25T19:09:03.016Z,14.45
2019-01-25T19:11:42.162Z,6.65
2019-01-25T19:14:21.089Z,6.92
2019-01-25T19:16:51.816Z,10.38
2019-01-25T19:19:27.266Z,8.18
2019-01-25T19:21:59.595Z,7.15
2019-01-25T19:24:30.498Z,4.20
2019-01-25T19:27:06.893Z,6.22
2019-01-25T19:29:37.945Z,9.33
2019-01-25T19:32:15.210Z,24.57
2019-01-25T19:35:05.307Z,15.32
2019-01-25T19:37:34.663Z,25.50
2019-01-25T19:40:22.491Z,11.35
2019-01-25T19:42:54.835Z,17.52
2019-01-25T19:45:31.101Z,27.00
2019-01-25T19:48:03.543Z,17.07
2019-01-25T19:50:44.107Z,13.95
2019-01-25T19:53:14.801Z,11.05
2019-01-25T19:56:05.771Z,8.10
2019-01-25T19:58:39.714Z,7.95
2019-01-25T20:01:18.576Z,9.65
2019-01-25T20:03:54.644Z,15.30
2019-01-25T20:10:28.534Z,13.00
2019-01-25T20:16:13.144Z,18.25
2019-01-25T20:23:23.805Z,5.97
2019-01-25T20:26:35.321Z,5.33
2019-01-25T20:29:02.966Z,5.25
2019-01-25T20:31:33.629Z,6.22
2019-01-25T20:34:04.190Z,5.67
2019-01-25T20:37:12.073Z,4.58
2019-01-25T20:39:37.333Z,4.08
2019-01-25T20:42:10.993Z,4.53
2019-01-25T20:44:43.832Z,6.90
2019-01-25T20:47:16.319Z,6.10
2019-01-25T20:49:49.759Z,8.20
2019-01-25T20:52:23.225Z,10.78
2019-01-25T20:54:55.404Z,12.68
2019-01-25T20:57:26.139Z,9.18
2019-01-25T20:59:56.893Z,9.30
2019-01-25T21:02:27.515Z,6.62
2019-01-25T21:04:58.071Z,5.03
2019-01-25T21:07:28.762Z,9.25
2019-01-25T21:10:01.733Z,6.65
2019-01-25T21:12:35.358Z,3.50
2019-01-25T21:15:10.318Z,6.72
2019-01-25T21:17:41.051Z,4.12
2019-01-25T21:20:17.651Z,4.05
2019-01-25T21:22:48.551Z,8.13
2019-01-25T21:25:19.677Z,34.23
2019-01-25T21:27:53.217Z,21.82
2019-01-25T21:30:28.126Z,7.40
2019-01-25T21:32:58.838Z,14.45
2019-01-25T21:35:47.226Z,9.05
2019-01-25T21:38:16.606Z,8.85
2019-01-25T21:40:48.991Z,9.60
2019-01-25T21:43:19.611Z,10.18
2019-01-25T21:45:50.341Z,9.55
2019-01-25T21:48:23.078Z,8.03
2019-01-25T21:50:56.208Z,8.43
2019-01-25T21:53:28.123Z,4.53
2019-01-25T21:55:59.091Z,5.95
2019-01-25T21:58:30.288Z,3.83
2019-01-25T22:01:02.056Z,7.47
2019-01-25T22:03:35.645Z,3.70
2019-01-25T22:06:06.718Z,7.15
2019-01-25T22:08:40.250Z,3.45
2019-01-25T22:11:11.064Z,11.33
2019-01-25T22:13:43.152Z,8.90
2019-01-25T22:16:18.192Z,13.48
2019-01-25T22:18:48.775Z,9.58
2019-01-25T22:21:19.457Z,4.85
2019-01-25T22:23:52.332Z,8.90
2019-01-25T22:26:25.935Z,7.50
2019-01-25T22:28:58.153Z,5.12
2019-01-25T22:31:32.653Z,8.88
2019-01-25T22:34:04.373Z,3.47
2019-01-25T22:36:35.148Z,6.22
2019-01-25T22:39:09.976Z,10.72
2019-01-25T22:41:46.730Z,7.25
2019-01-25T22:44:21.331Z,7.30
2019-01-25T22:46:51.968Z,8.13
2019-01-25T22:49:22.581Z,10.53
2019-01-25T22:51:58.957Z,15.38
2019-01-25T22:54:30.842Z,12.20
2019-01-25T22:57:03.806Z,11.00
2019-01-25T22:59:34.467Z,11.65
2019-01-25T23:02:09.031Z,8.95
2019-01-25T23:04:54.948Z,12.63
2019-01-25T23:07:29.098Z,7.33
2019-01-25T23:10:17.409Z,4.95
2019-01-25T23:12:53.502Z,3.33
2019-01-25T23:15:24.222Z,6.28
2019-01-25T23:17:54.873Z,6.05
2019-01-25T23:20:27.747Z,4.15
2019-01-25T23:23:02.931Z,8.70
2019-01-25T23:25:33.590Z,20.97
2019-01-25T23:28:04.245Z,25.00
2019-01-25T23:30:37.092Z,7.05
2019-01-25T23:33:07.906Z,35.28
2019-01-25T23:35:42.919Z,19.57
2019-01-25T23:38:12.514Z,14.28
2019-01-25T23:40:44.327Z,8.13
2019-01-25T23:43:14.980Z,8.88
2019-01-25T23:45:45.579Z,5.42
2019-01-25T23:48:16.180Z,3.83
2019-01-25T23:50:46.808Z,4.65
2019-01-25T23:53:19.908Z,7.37
2019-01-25T23:55:50.598Z,7.20
2019-01-25T23:58:21.238Z,5.40
